sensor_id;sensor_type;location;lat;lon;timestamp;P1;durP1;ratioP1;P2;durP2;ratioP2
67965;SDS011;54749;47.850;9.002;2023-03-21T00:01:52;7.60;;;3.17;;
67965;SDS011;54749;47.850;9.002;2023-03-21T00:04:20;9.65;;;4.35;;
67965;SDS011;54749;47.850;9.002;2023-03-21T00:06:48;11.32;;;4.53;;
67965;SDS011;54749;47.850;9.002;2023-03-21T00:09:16;10.35;;;5.22;;
67965;SDS011;54749;47.850;9.002;2023-03-21T00:11:44;10.53;;;4.90;;
67965;SDS011;54749;47.850;9.002;2023-03-21T00:14:11;12.38;;;5.40;;
67965;SDS011;54749;47.850;9.002;2023-03-21T00:16:41;11.18;;;4.78;;
67965;SDS011;54749;47.850;9.002;2023-03-21T00:19:11;7.68;;;3.85;;
67965;SDS011;54749;47.850;9.002;2023-03-21T00:21:40;8.70;;;3.55;;
67965;SDS011;54749;47.850;9.002;2023-03-21T00:24:28;8.20;;;3.57;;
67965;SDS011;54749;47.850;9.002;2023-03-21T00:26:55;8.43;;;3.58;;
67965;SDS011;54749;47.850;9.002;2023-03-21T00:29:41;7.80;;;3.70;;
67965;SDS011;54749;47.850;9.002;2023-03-21T00:32:08;7.65;;;3.60;;
67965;SDS011;54749;47.850;9.002;2023-03-21T00:34:35;11.00;;;4.47;;
67965;SDS011;54749;47.850;9.002;2023-03-21T00:37:14;10.30;;;5.07;;
67965;SDS011;54749;47.850;9.002;2023-03-21T00:39:44;9.63;;;4.72;;
67965;SDS011;54749;47.850;9.002;2023-03-21T00:42:15;9.35;;;4.70;;
67965;SDS011;54749;47.850;9.002;2023-03-21T00:44:42;11.57;;;4.80;;
67965;SDS011;54749;47.850;9.002;2023-03-21T00:47:11;9.95;;;4.53;;
67965;SDS011;54749;47.850;9.002;2023-03-21T00:49:38;10.90;;;5.20;;
67965;SDS011;54749;47.850;9.002;2023-03-21T00:52:07;11.85;;;5.15;;
67965;SDS011;54749;47.850;9.002;2023-03-21T00:54:49;11.70;;;4.85;;
67965;SDS011;54749;47.850;9.002;2023-03-21T00:57:17;8.98;;;4.20;;
67965;SDS011;54749;47.850;9.002;2023-03-21T00:59:49;8.00;;;3.70;;
67965;SDS011;54749;47.850;9.002;2023-03-21T01:02:16;7.60;;;3.50;;
67965;SDS011;54749;47.850;9.002;2023-03-21T01:04:48;6.95;;;3.25;;
67965;SDS011;54749;47.850;9.002;2023-03-21T01:07:16;6.80;;;2.90;;
67965;SDS011;54749;47.850;9.002;2023-03-21T01:09:43;7.28;;;2.78;;
67965;SDS011;54749;47.850;9.002;2023-03-21T01:12:10;8.60;;;2.83;;
67965;SDS011;54749;47.850;9.002;2023-03-21T01:14:37;6.70;;;2.90;;
67965;SDS011;54749;47.850;9.002;2023-03-21T01:17:04;6.95;;;2.95;;
67965;SDS011;54749;47.850;9.002;2023-03-21T01:19:31;5.90;;;2.95;;
67965;SDS011;54749;47.850;9.002;2023-03-21T01:22:16;6.90;;;2.97;;
67965;SDS011;54749;47.850;9.002;2023-03-21T01:24:43;7.53;;;2.55;;
67965;SDS011;54749;47.850;9.002;2023-03-21T01:27:21;6.07;;;2.60;;
67965;SDS011;54749;47.850;9.002;2023-03-21T01:29:48;5.15;;;2.25;;
67965;SDS011;54749;47.850;9.002;2023-03-21T01:32:15;6.22;;;2.70;;
67965;SDS011;54749;47.850;9.002;2023-03-21T01:34:42;5.28;;;2.33;;
67965;SDS011;54749;47.850;9.002;2023-03-21T01:37:09;5.72;;;2.50;;
67965;SDS011;54749;47.850;9.002;2023-03-21T01:39:43;5.83;;;2.30;;
67965;SDS011;54749;47.850;9.002;2023-03-21T01:42:13;5.45;;;2.30;;
67965;SDS011;54749;47.850;9.002;2023-03-21T01:44:58;5.53;;;2.60;;
67965;SDS011;54749;47.850;9.002;2023-03-21T01:47:43;6.93;;;2.38;;
67965;SDS011;54749;47.850;9.002;2023-03-21T01:50:21;9.10;;;3.42;;
67965;SDS011;54749;47.850;9.002;2023-03-21T01:52:56;10.33;;;3.60;;
67965;SDS011;54749;47.850;9.002;2023-03-21T01:55:29;7.88;;;3.75;;
67965;SDS011;54749;47.850;9.002;2023-03-21T01:58:22;5.55;;;2.55;;
67965;SDS011;54749;47.850;9.002;2023-03-21T02:01:21;7.25;;;2.30;;
67965;SDS011;54749;47.850;9.002;2023-03-21T02:03:52;5.25;;;2.40;;
67965;SDS011;54749;47.850;9.002;2023-03-21T02:06:53;6.77;;;2.40;;
67965;SDS011;54749;47.850;9.002;2023-03-21T02:09:45;5.28;;;2.15;;
67965;SDS011;54749;47.850;9.002;2023-03-21T02:12:18;6.22;;;2.40;;
67965;SDS011;54749;47.850;9.002;2023-03-21T02:14:47;5.30;;;2.10;;
67965;SDS011;54749;47.850;9.002;2023-03-21T02:28:39;6.10;;;2.13;;
67965;SDS011;54749;47.850;9.002;2023-03-21T02:38:54;6.97;;;3.15;;
67965;SDS011;54749;47.850;9.002;2023-03-21T02:41:44;5.65;;;2.60;;
67965;SDS011;54749;47.850;9.002;2023-03-21T02:44:27;9.15;;;3.10;;
67965;SDS011;54749;47.850;9.002;2023-03-21T02:52:18;8.20;;;2.70;;
67965;SDS011;54749;47.850;9.002;2023-03-21T02:55:06;6.75;;;2.45;;
67965;SDS011;54749;47.850;9.002;2023-03-21T02:57:48;4.93;;;2.20;;
67965;SDS011;54749;47.850;9.002;2023-03-21T03:00:18;5.60;;;2.40;;
67965;SDS011;54749;47.850;9.002;2023-03-21T03:02:47;5.10;;;2.20;;
67965;SDS011;54749;47.850;9.002;2023-03-21T03:05:26;5.78;;;2.15;;
67965;SDS011;54749;47.850;9.002;2023-03-21T03:13:34;9.20;;;3.10;;
67965;SDS011;54749;47.850;9.002;2023-03-21T03:16:21;7.88;;;3.10;;
67965;SDS011;54749;47.850;9.002;2023-03-21T03:18:58;6.22;;;2.47;;
67965;SDS011;54749;47.850;9.002;2023-03-21T03:21:31;5.80;;;2.58;;
67965;SDS011;54749;47.850;9.002;2023-03-21T03:24:09;7.45;;;3.20;;
67965;SDS011;54749;47.850;9.002;2023-03-21T03:26:50;6.00;;;2.60;;
67965;SDS011;54749;47.850;9.002;2023-03-21T03:29:23;6.15;;;2.60;;
67965;SDS011;54749;47.850;9.002;2023-03-21T03:32:00;4.85;;;2.20;;
67965;SDS011;54749;47.850;9.002;2023-03-21T03:34:36;6.90;;;3.20;;
67965;SDS011;54749;47.850;9.002;2023-03-21T03:37:09;7.70;;;3.83;;
67965;SDS011;54749;47.850;9.002;2023-03-21T03:39:42;10.53;;;4.17;;
67965;SDS011;54749;47.850;9.002;2023-03-21T03:42:17;12.40;;;4.40;;
67965;SDS011;54749;47.850;9.002;2023-03-21T03:45:01;9.55;;;4.40;;
67965;SDS011;54749;47.850;9.002;2023-03-21T03:50:29;8.07;;;4.25;;
67965;SDS011;54749;47.850;9.002;2023-03-21T03:53:01;7.60;;;3.90;;
67965;SDS011;54749;47.850;9.002;2023-03-21T03:55:44;9.23;;;4.00;;
67965;SDS011;54749;47.850;9.002;2023-03-21T03:58:16;9.50;;;4.18;;
67965;SDS011;54749;47.850;9.002;2023-03-21T04:00:52;10.60;;;4.30;;
67965;SDS011;54749;47.850;9.002;2023-03-21T04:03:20;6.85;;;2.97;;
67965;SDS011;54749;47.850;9.002;2023-03-21T04:05:48;10.43;;;3.77;;
67965;SDS011;54749;47.850;9.002;2023-03-21T04:08:16;6.75;;;3.10;;
67965;SDS011;54749;47.850;9.002;2023-03-21T04:10:48;8.98;;;4.07;;
67965;SDS011;54749;47.850;9.002;2023-03-21T04:13:16;9.48;;;4.00;;
67965;SDS011;54749;47.850;9.002;2023-03-21T04:15:49;6.80;;;3.45;;
67965;SDS011;54749;47.850;9.002;2023-03-21T04:18:16;8.60;;;4.00;;
67965;SDS011;54749;47.850;9.002;2023-03-21T04:20:43;9.15;;;3.70;;
67965;SDS011;54749;47.850;9.002;2023-03-21T04:23:11;6.97;;;3.38;;
67965;SDS011;54749;47.850;9.002;2023-03-21T04:25:43;7.75;;;3.78;;
67965;SDS011;54749;47.850;9.002;2023-03-21T04:28:24;9.23;;;4.18;;
67965;SDS011;54749;47.850;9.002;2023-03-21T04:31:00;6.43;;;3.17;;
67965;SDS011;54749;47.850;9.002;2023-03-21T04:33:44;7.03;;;3.15;;
67965;SDS011;54749;47.850;9.002;2023-03-21T04:36:13;7.30;;;3.10;;
67965;SDS011;54749;47.850;9.002;2023-03-21T04:38:52;7.07;;;3.30;;
67965;SDS011;54749;47.850;9.002;2023-03-21T04:41:20;8.63;;;4.22;;
67965;SDS011;54749;47.850;9.002;2023-03-21T04:43:47;7.00;;;3.23;;
67965;SDS011;54749;47.850;9.002;2023-03-21T04:46:15;7.40;;;2.80;;
67965;SDS011;54749;47.850;9.002;2023-03-21T04:48:42;5.82;;;3.00;;
67965;SDS011;54749;47.850;9.002;2023-03-21T04:51:10;6.32;;;3.10;;
67965;SDS011;54749;47.850;9.002;2023-03-21T04:53:37;11.55;;;2.75;;
67965;SDS011;54749;47.850;9.002;2023-03-21T04:56:05;6.77;;;2.50;;
67965;SDS011;54749;47.850;9.002;2023-03-21T04:58:33;6.13;;;2.65;;
67965;SDS011;54749;47.850;9.002;2023-03-21T05:01:00;4.70;;;2.20;;
67965;SDS011;54749;47.850;9.002;2023-03-21T05:03:28;5.80;;;2.58;;
67965;SDS011;54749;47.850;9.002;2023-03-21T05:06:00;8.25;;;2.88;;
67965;SDS011;54749;47.850;9.002;2023-03-21T05:08:27;5.47;;;2.63;;
67965;SDS011;54749;47.850;9.002;2023-03-21T05:10:54;5.78;;;2.40;;
67965;SDS011;54749;47.850;9.002;2023-03-21T05:13:24;5.28;;;2.30;;
67965;SDS011;54749;47.850;9.002;2023-03-21T05:15:51;5.63;;;2.70;;
67965;SDS011;54749;47.850;9.002;2023-03-21T05:18:18;5.82;;;2.42;;
67965;SDS011;54749;47.850;9.002;2023-03-21T05:21:11;6.47;;;3.20;;
67965;SDS011;54749;47.850;9.002;2023-03-21T05:23:39;7.00;;;3.33;;
67965;SDS011;54749;47.850;9.002;2023-03-21T05:26:07;8.77;;;3.63;;
67965;SDS011;54749;47.850;9.002;2023-03-21T05:28:40;9.45;;;3.25;;
67965;SDS011;54749;47.850;9.002;2023-03-21T05:31:08;6.63;;;2.83;;
67965;SDS011;54749;47.850;9.002;2023-03-21T05:33:35;6.13;;;2.87;;
67965;SDS011;54749;47.850;9.002;2023-03-21T05:36:02;6.65;;;2.63;;
67965;SDS011;54749;47.850;9.002;2023-03-21T05:38:30;7.60;;;2.80;;
67965;SDS011;54749;47.850;9.002;2023-03-21T05:40:58;6.65;;;2.95;;
67965;SDS011;54749;47.850;9.002;2023-03-21T05:43:25;8.35;;;3.70;;
67965;SDS011;54749;47.850;9.002;2023-03-21T05:45:53;6.93;;;3.60;;
67965;SDS011;54749;47.850;9.002;2023-03-21T05:48:20;10.18;;;4.13;;
67965;SDS011;54749;47.850;9.002;2023-03-21T05:51:05;8.85;;;4.50;;
67965;SDS011;54749;47.850;9.002;2023-03-21T05:53:32;8.93;;;3.72;;
67965;SDS011;54749;47.850;9.002;2023-03-21T05:56:00;8.57;;;4.40;;
67965;SDS011;54749;47.850;9.002;2023-03-21T05:58:50;7.13;;;3.70;;
67965;SDS011;54749;47.850;9.002;2023-03-21T06:01:18;7.32;;;3.90;;
67965;SDS011;54749;47.850;9.002;2023-03-21T06:03:53;7.72;;;3.80;;
67965;SDS011;54749;47.850;9.002;2023-03-21T06:06:22;7.95;;;3.60;;
67965;SDS011;54749;47.850;9.002;2023-03-21T06:08:54;7.47;;;3.05;;
67965;SDS011;54749;47.850;9.002;2023-03-21T06:11:26;5.97;;;3.00;;
67965;SDS011;54749;47.850;9.002;2023-03-21T06:14:19;6.90;;;3.20;;
67965;SDS011;54749;47.850;9.002;2023-03-21T06:17:12;6.72;;;3.20;;
67965;SDS011;54749;47.850;9.002;2023-03-21T06:19:45;10.57;;;3.53;;
67965;SDS011;54749;47.850;9.002;2023-03-21T06:22:18;9.82;;;3.72;;
67965;SDS011;54749;47.850;9.002;2023-03-21T06:24:45;10.90;;;4.27;;
67965;SDS011;54749;47.850;9.002;2023-03-21T06:27:16;9.40;;;3.70;;
67965;SDS011;54749;47.850;9.002;2023-03-21T06:29:49;17.33;;;4.38;;
67965;SDS011;54749;47.850;9.002;2023-03-21T06:32:16;8.32;;;3.75;;
67965;SDS011;54749;47.850;9.002;2023-03-21T06:34:44;10.68;;;4.03;;
67965;SDS011;54749;47.850;9.002;2023-03-21T06:37:14;7.33;;;3.53;;
67965;SDS011;54749;47.850;9.002;2023-03-21T06:39:41;8.27;;;4.00;;
67965;SDS011;54749;47.850;9.002;2023-03-21T06:42:09;10.27;;;3.65;;
67965;SDS011;54749;47.850;9.002;2023-03-21T06:44:36;8.57;;;3.80;;
67965;SDS011;54749;47.850;9.002;2023-03-21T06:47:07;10.30;;;3.78;;
67965;SDS011;54749;47.850;9.002;2023-03-21T06:49:34;13.33;;;3.60;;
67965;SDS011;54749;47.850;9.002;2023-03-21T06:52:06;9.10;;;3.42;;
67965;SDS011;54749;47.850;9.002;2023-03-21T06:54:33;6.30;;;3.17;;
67965;SDS011;54749;47.850;9.002;2023-03-21T06:57:08;6.97;;;3.40;;
67965;SDS011;54749;47.850;9.002;2023-03-21T06:59:37;7.10;;;3.42;;
67965;SDS011;54749;47.850;9.002;2023-03-21T07:02:09;8.17;;;3.30;;
67965;SDS011;54749;47.850;9.002;2023-03-21T07:04:43;6.53;;;3.20;;
67965;SDS011;54749;47.850;9.002;2023-03-21T07:07:16;7.43;;;3.05;;
67965;SDS011;54749;47.850;9.002;2023-03-21T07:09:43;8.35;;;3.55;;
67965;SDS011;54749;47.850;9.002;2023-03-21T07:12:10;6.25;;;3.20;;
67965;SDS011;54749;47.850;9.002;2023-03-21T07:14:55;10.60;;;4.77;;
67965;SDS011;54749;47.850;9.002;2023-03-21T07:17:23;7.38;;;3.83;;
67965;SDS011;54749;47.850;9.002;2023-03-21T07:19:50;7.07;;;3.50;;
67965;SDS011;54749;47.850;9.002;2023-03-21T07:22:18;5.97;;;2.90;;
67965;SDS011;54749;47.850;9.002;2023-03-21T07:24:45;11.18;;;3.60;;
67965;SDS011;54749;47.850;9.002;2023-03-21T07:27:28;5.80;;;3.13;;
67965;SDS011;54749;47.850;9.002;2023-03-21T07:29:55;6.82;;;3.10;;
67965;SDS011;54749;47.850;9.002;2023-03-21T07:32:23;8.27;;;3.40;;
67965;SDS011;54749;47.850;9.002;2023-03-21T07:34:49;6.68;;;3.65;;
67965;SDS011;54749;47.850;9.002;2023-03-21T07:37:17;8.05;;;3.25;;
67965;SDS011;54749;47.850;9.002;2023-03-21T07:39:44;6.63;;;3.40;;
67965;SDS011;54749;47.850;9.002;2023-03-21T07:42:11;6.38;;;3.38;;
67965;SDS011;54749;47.850;9.002;2023-03-21T07:44:38;9.57;;;3.30;;
67965;SDS011;54749;47.850;9.002;2023-03-21T07:47:06;6.90;;;3.60;;
67965;SDS011;54749;47.850;9.002;2023-03-21T07:49:32;8.07;;;4.38;;
67965;SDS011;54749;47.850;9.002;2023-03-21T07:52:00;10.23;;;4.67;;
67965;SDS011;54749;47.850;9.002;2023-03-21T07:54:30;10.05;;;4.32;;
67965;SDS011;54749;47.850;9.002;2023-03-21T07:56:57;9.77;;;4.93;;
67965;SDS011;54749;47.850;9.002;2023-03-21T07:59:24;7.32;;;4.00;;
67965;SDS011;54749;47.850;9.002;2023-03-21T08:01:52;7.25;;;3.63;;
67965;SDS011;54749;47.850;9.002;2023-03-21T08:04:19;6.07;;;3.70;;
67965;SDS011;54749;47.850;9.002;2023-03-21T08:06:46;8.85;;;4.70;;
67965;SDS011;54749;47.850;9.002;2023-03-21T08:09:13;7.95;;;4.30;;
67965;SDS011;54749;47.850;9.002;2023-03-21T08:11:40;8.27;;;4.93;;
67965;SDS011;54749;47.850;9.002;2023-03-21T08:14:07;7.82;;;5.10;;
67965;SDS011;54749;47.850;9.002;2023-03-21T08:16:34;8.90;;;5.23;;
67965;SDS011;54749;47.850;9.002;2023-03-21T08:19:01;7.85;;;4.18;;
67965;SDS011;54749;47.850;9.002;2023-03-21T08:21:28;7.03;;;4.38;;
67965;SDS011;54749;47.850;9.002;2023-03-21T08:23:55;7.40;;;5.30;;
67965;SDS011;54749;47.850;9.002;2023-03-21T08:26:22;9.38;;;4.13;;
67965;SDS011;54749;47.850;9.002;2023-03-21T08:28:52;19.47;;;12.33;;
67965;SDS011;54749;47.850;9.002;2023-03-21T08:31:19;13.65;;;7.68;;
67965;SDS011;54749;47.850;9.002;2023-03-21T08:33:47;10.90;;;5.72;;
67965;SDS011;54749;47.850;9.002;2023-03-21T08:36:20;9.20;;;4.70;;
67965;SDS011;54749;47.850;9.002;2023-03-21T08:38:48;6.68;;;4.28;;
67965;SDS011;54749;47.850;9.002;2023-03-21T08:41:19;12.60;;;8.37;;
67965;SDS011;54749;47.850;9.002;2023-03-21T08:43:47;12.15;;;8.13;;
67965;SDS011;54749;47.850;9.002;2023-03-21T08:46:15;30.80;;;23.35;;
67965;SDS011;54749;47.850;9.002;2023-03-21T08:48:42;34.00;;;25.98;;
67965;SDS011;54749;47.850;9.002;2023-03-21T08:51:09;26.42;;;19.60;;
67965;SDS011;54749;47.850;9.002;2023-03-21T08:53:36;20.33;;;16.50;;
67965;SDS011;54749;47.850;9.002;2023-03-21T08:56:03;20.23;;;16.27;;
67965;SDS011;54749;47.850;9.002;2023-03-21T08:58:31;23.85;;;20.52;;
67965;SDS011;54749;47.850;9.002;2023-03-21T09:00:59;26.50;;;22.70;;
67965;SDS011;54749;47.850;9.002;2023-03-21T09:03:25;15.15;;;12.45;;
67965;SDS011;54749;47.850;9.002;2023-03-21T09:05:53;13.03;;;9.37;;
67965;SDS011;54749;47.850;9.002;2023-03-21T09:08:20;12.95;;;8.98;;
67965;SDS011;54749;47.850;9.002;2023-03-21T09:10:52;9.50;;;5.80;;
67965;SDS011;54749;47.850;9.002;2023-03-21T09:13:20;14.57;;;10.38;;
67965;SDS011;54749;47.850;9.002;2023-03-21T09:15:48;10.30;;;5.88;;
67965;SDS011;54749;47.850;9.002;2023-03-21T09:18:15;9.17;;;6.60;;
67965;SDS011;54749;47.850;9.002;2023-03-21T09:20:44;9.35;;;6.78;;
67965;SDS011;54749;47.850;9.002;2023-03-21T09:23:12;9.38;;;7.70;;
67965;SDS011;54749;47.850;9.002;2023-03-21T09:25:40;14.88;;;11.82;;
67965;SDS011;54749;47.850;9.002;2023-03-21T09:28:10;13.00;;;9.90;;
67965;SDS011;54749;47.850;9.002;2023-03-21T09:30:39;13.07;;;10.07;;
67965;SDS011;54749;47.850;9.002;2023-03-21T09:33:06;7.63;;;4.40;;
67965;SDS011;54749;47.850;9.002;2023-03-21T09:35:39;7.20;;;4.70;;
67965;SDS011;54749;47.850;9.002;2023-03-21T09:38:06;12.95;;;8.48;;
67965;SDS011;54749;47.850;9.002;2023-03-21T09:40:40;7.55;;;5.35;;
67965;SDS011;54749;47.850;9.002;2023-03-21T09:43:29;10.80;;;7.97;;
67965;SDS011;54749;47.850;9.002;2023-03-21T09:49:06;9.38;;;5.78;;
67965;SDS011;54749;47.850;9.002;2023-03-21T09:51:43;7.95;;;5.65;;
67965;SDS011;54749;47.850;9.002;2023-03-21T09:54:16;9.85;;;4.53;;
67965;SDS011;54749;47.850;9.002;2023-03-21T09:56:45;8.07;;;4.97;;
67965;SDS011;54749;47.850;9.002;2023-03-21T09:59:18;7.78;;;4.95;;
67965;SDS011;54749;47.850;9.002;2023-03-21T10:01:50;9.50;;;5.63;;
67965;SDS011;54749;47.850;9.002;2023-03-21T10:04:17;6.97;;;4.50;;
67965;SDS011;54749;47.850;9.002;2023-03-21T10:06:49;7.88;;;4.53;;
67965;SDS011;54749;47.850;9.002;2023-03-21T10:09:22;8.90;;;5.30;;
67965;SDS011;54749;47.850;9.002;2023-03-21T10:11:53;7.57;;;4.63;;
67965;SDS011;54749;47.850;9.002;2023-03-21T10:14:27;10.70;;;5.28;;
67965;SDS011;54749;47.850;9.002;2023-03-21T10:17:40;10.10;;;6.10;;
67965;SDS011;54749;47.850;9.002;2023-03-21T10:19:54;9.52;;;5.10;;
67965;SDS011;54749;47.850;9.002;2023-03-21T10:22:24;8.53;;;4.50;;
67965;SDS011;54749;47.850;9.002;2023-03-21T10:24:51;10.18;;;5.97;;
67965;SDS011;54749;47.850;9.002;2023-03-21T10:27:18;11.15;;;7.28;;
67965;SDS011;54749;47.850;9.002;2023-03-21T10:29:45;8.57;;;5.38;;
67965;SDS011;54749;47.850;9.002;2023-03-21T10:32:14;11.02;;;5.03;;
67965;SDS011;54749;47.850;9.002;2023-03-21T10:34:48;10.37;;;6.60;;
67965;SDS011;54749;47.850;9.002;2023-03-21T10:37:22;13.50;;;6.80;;
67965;SDS011;54749;47.850;9.002;2023-03-21T10:39:51;10.50;;;6.30;;
67965;SDS011;54749;47.850;9.002;2023-03-21T10:42:20;7.97;;;4.63;;
67965;SDS011;54749;47.850;9.002;2023-03-21T10:44:51;10.95;;;4.85;;
67965;SDS011;54749;47.850;9.002;2023-03-21T10:47:21;9.73;;;5.10;;
67965;SDS011;54749;47.850;9.002;2023-03-21T10:49:53;6.93;;;4.30;;
67965;SDS011;54749;47.850;9.002;2023-03-21T10:52:33;8.43;;;4.90;;
67965;SDS011;54749;47.850;9.002;2023-03-21T10:55:06;9.98;;;4.20;;
67965;SDS011;54749;47.850;9.002;2023-03-21T10:57:42;8.30;;;4.43;;
67965;SDS011;54749;47.850;9.002;2023-03-21T11:00:22;7.60;;;4.20;;
67965;SDS011;54749;47.850;9.002;2023-03-21T11:02:53;11.15;;;4.82;;
67965;SDS011;54749;47.850;9.002;2023-03-21T11:05:24;8.35;;;3.90;;
67965;SDS011;54749;47.850;9.002;2023-03-21T11:08:00;7.85;;;4.53;;
67965;SDS011;54749;47.850;9.002;2023-03-21T11:10:33;8.38;;;4.30;;
67965;SDS011;54749;47.850;9.002;2023-03-21T11:13:07;8.33;;;4.20;;
67965;SDS011;54749;47.850;9.002;2023-03-21T11:18:16;7.57;;;3.88;;
67965;SDS011;54749;47.850;9.002;2023-03-21T11:20:59;7.03;;;4.10;;
67965;SDS011;54749;47.850;9.002;2023-03-21T11:23:31;5.68;;;3.33;;
67965;SDS011;54749;47.850;9.002;2023-03-21T11:26:01;6.95;;;3.20;;
67965;SDS011;54749;47.850;9.002;2023-03-21T11:28:38;6.57;;;3.60;;
67965;SDS011;54749;47.850;9.002;2023-03-21T11:31:07;7.32;;;3.50;;
67965;SDS011;54749;47.850;9.002;2023-03-21T11:33:36;7.05;;;3.30;;
67965;SDS011;54749;47.850;9.002;2023-03-21T11:36:07;6.15;;;3.15;;
67965;SDS011;54749;47.850;9.002;2023-03-21T11:38:55;7.03;;;3.15;;
67965;SDS011;54749;47.850;9.002;2023-03-21T11:41:28;8.73;;;3.50;;
67965;SDS011;54749;47.850;9.002;2023-03-21T11:43:59;7.18;;;3.92;;
67965;SDS011;54749;47.850;9.002;2023-03-21T11:46:29;5.90;;;3.22;;
67965;SDS011;54749;47.850;9.002;2023-03-21T11:48:58;6.85;;;3.35;;
67965;SDS011;54749;47.850;9.002;2023-03-21T11:54:23;6.03;;;3.43;;
67965;SDS011;54749;47.850;9.002;2023-03-21T11:56:53;6.38;;;3.25;;
67965;SDS011;54749;47.850;9.002;2023-03-21T11:59:31;6.32;;;3.28;;
67965;SDS011;54749;47.850;9.002;2023-03-21T12:05:13;5.03;;;2.70;;
67965;SDS011;54749;47.850;9.002;2023-03-21T12:07:53;5.93;;;3.20;;
67965;SDS011;54749;47.850;9.002;2023-03-21T12:13:27;6.38;;;3.20;;
67965;SDS011;54749;47.850;9.002;2023-03-21T12:16:32;5.10;;;3.00;;
67965;SDS011;54749;47.850;9.002;2023-03-21T12:27:01;5.50;;;3.30;;
67965;SDS011;54749;47.850;9.002;2023-03-21T12:32:19;9.30;;;4.15;;
67965;SDS011;54749;47.850;9.002;2023-03-21T12:35:11;7.90;;;3.17;;
67965;SDS011;54749;47.850;9.002;2023-03-21T12:43:38;5.68;;;2.53;;
67965;SDS011;54749;47.850;9.002;2023-03-21T12:46:19;7.72;;;3.40;;
67965;SDS011;54749;47.850;9.002;2023-03-21T12:48:53;7.57;;;3.50;;
67965;SDS011;54749;47.850;9.002;2023-03-21T12:51:29;7.72;;;3.60;;
67965;SDS011;54749;47.850;9.002;2023-03-21T12:56:39;6.40;;;3.10;;
67965;SDS011;54749;47.850;9.002;2023-03-21T13:07:26;8.65;;;3.95;;
67965;SDS011;54749;47.850;9.002;2023-03-21T13:09:58;8.77;;;4.03;;
67965;SDS011;54749;47.850;9.002;2023-03-21T13:12:33;7.38;;;3.53;;
67965;SDS011;54749;47.850;9.002;2023-03-21T13:15:21;8.10;;;3.97;;
67965;SDS011;54749;47.850;9.002;2023-03-21T13:17:56;6.20;;;3.25;;
67965;SDS011;54749;47.850;9.002;2023-03-21T13:23:23;6.53;;;3.20;;
67965;SDS011;54749;47.850;9.002;2023-03-21T13:25:52;8.85;;;4.20;;
67965;SDS011;54749;47.850;9.002;2023-03-21T13:28:24;7.90;;;4.23;;
67965;SDS011;54749;47.850;9.002;2023-03-21T13:31:13;7.93;;;3.70;;
67965;SDS011;54749;47.850;9.002;2023-03-21T13:33:50;7.70;;;3.80;;
67965;SDS011;54749;47.850;9.002;2023-03-21T13:36:23;8.00;;;4.22;;
67965;SDS011;54749;47.850;9.002;2023-03-21T13:38:52;9.15;;;4.65;;
67965;SDS011;54749;47.850;9.002;2023-03-21T13:41:30;7.40;;;4.17;;
67965;SDS011;54749;47.850;9.002;2023-03-21T13:49:29;8.05;;;3.67;;
67965;SDS011;54749;47.850;9.002;2023-03-21T13:51:59;6.55;;;3.45;;
67965;SDS011;54749;47.850;9.002;2023-03-21T13:54:30;11.13;;;4.30;;
67965;SDS011;54749;47.850;9.002;2023-03-21T13:57:21;6.43;;;3.70;;
67965;SDS011;54749;47.850;9.002;2023-03-21T14:00:13;7.50;;;4.32;;
67965;SDS011;54749;47.850;9.002;2023-03-21T14:05:46;8.15;;;4.20;;
67965;SDS011;54749;47.850;9.002;2023-03-21T14:08:16;6.73;;;3.80;;
67965;SDS011;54749;47.850;9.002;2023-03-21T14:11:00;9.93;;;5.13;;
67965;SDS011;54749;47.850;9.002;2023-03-21T14:13:31;7.10;;;3.90;;
67965;SDS011;54749;47.850;9.002;2023-03-21T14:16:14;10.32;;;4.22;;
67965;SDS011;54749;47.850;9.002;2023-03-21T14:18:44;9.05;;;5.00;;
67965;SDS011;54749;47.850;9.002;2023-03-21T14:21:21;10.00;;;4.00;;
67965;SDS011;54749;47.850;9.002;2023-03-21T14:23:54;8.75;;;3.85;;
67965;SDS011;54749;47.850;9.002;2023-03-21T14:26:34;6.97;;;3.53;;
67965;SDS011;54749;47.850;9.002;2023-03-21T14:29:04;9.68;;;3.97;;
67965;SDS011;54749;47.850;9.002;2023-03-21T14:31:50;9.30;;;3.75;;
67965;SDS011;54749;47.850;9.002;2023-03-21T14:34:18;8.40;;;4.03;;
67965;SDS011;54749;47.850;9.002;2023-03-21T14:36:47;7.82;;;4.15;;
67965;SDS011;54749;47.850;9.002;2023-03-21T14:39:28;8.98;;;4.72;;
67965;SDS011;54749;47.850;9.002;2023-03-21T14:42:06;11.05;;;5.00;;
67965;SDS011;54749;47.850;9.002;2023-03-21T14:44:42;8.63;;;4.30;;
67965;SDS011;54749;47.850;9.002;2023-03-21T14:47:23;8.60;;;4.40;;
67965;SDS011;54749;47.850;9.002;2023-03-21T14:49:54;10.10;;;3.90;;
67965;SDS011;54749;47.850;9.002;2023-03-21T14:52:23;8.93;;;4.38;;
67965;SDS011;54749;47.850;9.002;2023-03-21T14:54:53;6.68;;;3.67;;
67965;SDS011;54749;47.850;9.002;2023-03-21T14:57:22;7.32;;;3.40;;
67965;SDS011;54749;47.850;9.002;2023-03-21T14:59:54;7.13;;;3.67;;
67965;SDS011;54749;47.850;9.002;2023-03-21T15:02:29;8.77;;;3.63;;
67965;SDS011;54749;47.850;9.002;2023-03-21T15:05:05;9.15;;;5.45;;
67965;SDS011;54749;47.850;9.002;2023-03-21T15:07:35;8.13;;;4.85;;
67965;SDS011;54749;47.850;9.002;2023-03-21T15:10:08;13.63;;;8.70;;
67965;SDS011;54749;47.850;9.002;2023-03-21T15:12:55;8.80;;;4.70;;
67965;SDS011;54749;47.850;9.002;2023-03-21T15:15:24;9.45;;;4.32;;
67965;SDS011;54749;47.850;9.002;2023-03-21T15:17:54;8.55;;;4.55;;
67965;SDS011;54749;47.850;9.002;2023-03-21T15:20:27;8.15;;;4.00;;
67965;SDS011;54749;47.850;9.002;2023-03-21T15:23:02;7.68;;;4.30;;
67965;SDS011;54749;47.850;9.002;2023-03-21T15:25:33;10.40;;;5.50;;
67965;SDS011;54749;47.850;9.002;2023-03-21T15:28:02;11.75;;;4.88;;
67965;SDS011;54749;47.850;9.002;2023-03-21T15:30:31;8.63;;;4.45;;
67965;SDS011;54749;47.850;9.002;2023-03-21T15:33:07;12.07;;;6.18;;
67965;SDS011;54749;47.850;9.002;2023-03-21T15:35:37;8.50;;;4.82;;
67965;SDS011;54749;47.850;9.002;2023-03-21T15:41:15;13.68;;;5.72;;
67965;SDS011;54749;47.850;9.002;2023-03-21T15:46:46;11.68;;;5.53;;
67965;SDS011;54749;47.850;9.002;2023-03-21T15:54:15;16.40;;;7.47;;
67965;SDS011;54749;47.850;9.002;2023-03-21T15:56:47;19.38;;;9.23;;
67965;SDS011;54749;47.850;9.002;2023-03-21T15:59:17;14.52;;;6.80;;
67965;SDS011;54749;47.850;9.002;2023-03-21T16:01:45;9.13;;;4.80;;
67965;SDS011;54749;47.850;9.002;2023-03-21T16:04:14;9.48;;;4.65;;
67965;SDS011;54749;47.850;9.002;2023-03-21T16:06:56;11.47;;;4.57;;
67965;SDS011;54749;47.850;9.002;2023-03-21T16:09:25;8.18;;;3.90;;
67965;SDS011;54749;47.850;9.002;2023-03-21T16:11:56;8.02;;;3.70;;
67965;SDS011;54749;47.850;9.002;2023-03-21T16:14:25;7.25;;;2.90;;
67965;SDS011;54749;47.850;9.002;2023-03-21T16:16:55;6.07;;;2.95;;
67965;SDS011;54749;47.850;9.002;2023-03-21T16:19:24;8.60;;;5.70;;
67965;SDS011;54749;47.850;9.002;2023-03-21T16:21:53;7.67;;;4.20;;
67965;SDS011;54749;47.850;9.002;2023-03-21T16:24:20;10.68;;;5.10;;
67965;SDS011;54749;47.850;9.002;2023-03-21T16:26:47;8.55;;;3.50;;
67965;SDS011;54749;47.850;9.002;2023-03-21T16:29:17;10.88;;;3.70;;
67965;SDS011;54749;47.850;9.002;2023-03-21T16:31:46;6.65;;;3.15;;
67965;SDS011;54749;47.850;9.002;2023-03-21T16:34:13;8.43;;;3.20;;
67965;SDS011;54749;47.850;9.002;2023-03-21T16:36:41;7.73;;;3.73;;
67965;SDS011;54749;47.850;9.002;2023-03-21T16:39:20;7.57;;;3.40;;
67965;SDS011;54749;47.850;9.002;2023-03-21T16:41:48;6.85;;;3.28;;
67965;SDS011;54749;47.850;9.002;2023-03-21T16:44:16;7.80;;;3.47;;
67965;SDS011;54749;47.850;9.002;2023-03-21T16:46:44;8.93;;;3.10;;
67965;SDS011;54749;47.850;9.002;2023-03-21T16:49:16;9.60;;;2.60;;
67965;SDS011;54749;47.850;9.002;2023-03-21T16:51:50;7.45;;;2.72;;
67965;SDS011;54749;47.850;9.002;2023-03-21T16:54:19;8.20;;;3.42;;